Gladbrook, Iowa
Current Conditions -  °F | °C
As of 3:53 PM on Tuesday 21 Oct 2014 (Local Time) from KMIW Reporting Station
Clear Clear  
Wind Chill: 62°   Ceiling: Unl
Heat Index: 62°   Visibility: 10mi
Dew Point: 43°   Wind: 10mph
Humidity: 50%   Direction: 130°SE
Pressure: 30.13"   Gusts: NA
Location:  42.19°N, 92.72°W
Report Text: KMIW 212053Z AUTO 13009KT 10SM CLR 17/06 A3013 RMK AO2 SLP204 T01670061 56011
Loading
Personal Weather Stations






























Interactive Weather Map
Tropical Storm Tracking
New forecast layout! Learn more

10-Day Weather Forecast

Advertisements
Track Severe Weather on mobile